Terminal Aerodrome Forecast
Issued by NWS

Current Version | Previous Version | Graphics & Text | Print | Product List | Glossary On
Versions: 1 2 3 4 5 6 7 8 9 10 11 12 13 14 15 16 17 18 19 20 21 22 23 24 25 26 27 28 29 30
000
FTUS41 KRLX 190500 RRA
TAFCKB
TAF
KCKB 190545Z 1906/2006 00000KT 6SM BR BKN010
      TEMPO 1906/1908 3SM BR SCT008
     FM190800 00000KT 2SM BR BKN008
      TEMPO 1909/1913 1/2SM FG BKN002
     FM191400 00000KT 4SM BR BKN015
     FM191600 00000KT 6SM BR BKN025
     FM191900 00000KT P6SM BKN035
     FM192000 VRB03KT P6SM VCTS BKN040CB
     FM200500 00000KT 4SM SHRA BR VCTS OVC040CB=

USA.gov is the U.S. government's official web portal to all federal, state and local government web resources and services.